createdAt,value
2019-02-14T00:01:14.751Z,13.73
2019-02-14T00:03:44.900Z,10.83
2019-02-14T00:06:15.058Z,10.90
2019-02-14T00:08:45.956Z,9.78
2019-02-14T00:11:16.150Z,10.80
2019-02-14T00:13:46.350Z,12.03
2019-02-14T00:16:17.306Z,10.28
2019-02-14T00:18:47.487Z,10.70
2019-02-14T00:21:17.746Z,10.10
2019-02-14T00:23:47.896Z,10.47
2019-02-14T00:26:18.844Z,10.43
2019-02-14T00:28:48.990Z,9.88
2019-02-14T00:31:19.210Z,9.95
2019-02-14T00:33:49.365Z,10.30
2019-02-14T00:36:19.675Z,9.70
2019-02-14T00:38:50.998Z,10.33
2019-02-14T00:41:21.273Z,9.83
2019-02-14T00:43:51.425Z,10.63
2019-02-14T00:46:21.550Z,9.93
2019-02-14T00:49:14.769Z,10.63
2019-02-14T00:52:13.556Z,9.70
2019-02-14T00:55:08.617Z,10.70
2019-02-14T00:58:04.683Z,9.57
2019-02-14T01:01:01.216Z,9.90
2019-02-14T01:03:56.687Z,9.40
2019-02-14T01:06:53.353Z,10.23
2019-02-14T01:09:51.118Z,10.10
2019-02-14T01:12:46.823Z,8.90
2019-02-14T01:15:43.573Z,10.57
2019-02-14T01:18:39.850Z,12.30
2019-02-14T01:21:36.641Z,11.40
2019-02-14T01:24:32.941Z,12.83
2019-02-14T01:27:27.987Z,13.30
2019-02-14T01:30:24.033Z,14.00
2019-02-14T01:33:19.686Z,13.53
2019-02-14T01:36:16.231Z,12.60
2019-02-14T01:39:12.989Z,11.70
2019-02-14T01:42:09.693Z,11.07
2019-02-14T01:45:06.354Z,11.63
2019-02-14T01:48:01.737Z,11.23
2019-02-14T01:50:59.252Z,10.83
2019-02-14T01:53:55.199Z,11.00
2019-02-14T01:56:50.906Z,10.77
2019-02-14T01:59:47.705Z,10.60
2019-02-14T02:02:42.978Z,11.33
2019-02-14T02:05:39.745Z,10.73
2019-02-14T02:08:36.587Z,10.10
2019-02-14T02:11:34.317Z,11.40
2019-02-14T02:14:29.811Z,10.57
2019-02-14T02:17:25.409Z,10.80
2019-02-14T02:20:20.879Z,10.30
2019-02-14T02:23:19.843Z,10.28
2019-02-14T02:26:16.596Z,10.93
2019-02-14T02:29:12.095Z,11.13
2019-02-14T02:32:09.439Z,10.57
2019-02-14T02:35:04.508Z,10.07
2019-02-14T02:38:01.053Z,10.87
2019-02-14T02:40:56.542Z,11.65
2019-02-14T02:43:53.128Z,10.93
2019-02-14T02:46:49.823Z,12.50
2019-02-14T02:49:46.556Z,11.67
2019-02-14T02:52:44.151Z,11.70
2019-02-14T02:55:39.817Z,11.03
2019-02-14T02:58:35.727Z,11.30
2019-02-14T03:01:32.214Z,10.50
2019-02-14T03:04:27.904Z,11.22
2019-02-14T03:07:24.642Z,11.57
2019-02-14T03:14:41.702Z,11.37
2019-02-14T03:17:38.179Z,10.50
2019-02-14T03:20:33.683Z,10.70
2019-02-14T03:23:32.309Z,11.00
2019-02-14T03:26:28.120Z,11.50
2019-02-14T03:29:25.474Z,11.10
2019-02-14T03:32:20.911Z,10.47
2019-02-14T03:35:18.210Z,10.60
2019-02-14T03:38:14.358Z,10.80
2019-02-14T03:41:09.832Z,10.70
2019-02-14T03:44:07.129Z,10.53
2019-02-14T03:47:02.748Z,11.63
2019-02-14T03:50:00.612Z,11.77
2019-02-14T03:52:57.302Z,9.60
2019-02-14T03:55:53.794Z,10.43
2019-02-14T03:58:49.148Z,10.43
2019-02-14T04:01:46.495Z,10.30
2019-02-14T04:04:43.194Z,9.80
2019-02-14T04:07:46.309Z,10.33
2019-02-14T04:10:42.886Z,10.03
2019-02-14T04:13:38.349Z,10.40
2019-02-14T04:16:36.235Z,10.27
2019-02-14T04:19:32.010Z,9.50
2019-02-14T04:22:28.673Z,9.70
2019-02-14T04:25:24.998Z,10.17
2019-02-14T04:28:20.679Z,10.37
2019-02-14T04:31:15.746Z,11.67
2019-02-14T04:34:13.320Z,10.30
2019-02-14T04:37:09.796Z,12.00
2019-02-14T04:40:04.830Z,10.37
2019-02-14T04:43:02.603Z,12.20
2019-02-14T04:45:58.120Z,12.13
2019-02-14T04:48:54.621Z,11.53
2019-02-14T04:51:51.199Z,10.40
2019-02-14T04:54:48.000Z,12.10
2019-02-14T04:57:42.979Z,12.57
2019-02-14T05:00:39.495Z,12.87
2019-02-14T05:03:35.979Z,11.67
2019-02-14T05:06:31.474Z,11.33
2019-02-14T05:09:28.955Z,10.93
2019-02-14T05:12:23.964Z,11.70
2019-02-14T05:15:21.720Z,10.80
2019-02-14T05:18:18.211Z,10.43
2019-02-14T05:21:15.215Z,10.50
2019-02-14T05:24:12.708Z,12.13
2019-02-14T05:27:08.195Z,12.20
2019-02-14T05:30:05.075Z,11.00
2019-02-14T05:33:00.555Z,10.10
2019-02-14T05:35:57.987Z,11.43
2019-02-14T05:38:53.706Z,11.07
2019-02-14T05:41:50.296Z,11.27
2019-02-14T05:44:47.543Z,10.95
2019-02-14T05:47:44.792Z,10.43
2019-02-14T05:50:42.144Z,11.47
2019-02-14T05:53:38.716Z,10.37
2019-02-14T05:56:35.217Z,11.07
2019-02-14T05:59:30.660Z,18.67
2019-02-14T06:02:26.629Z,18.27
2019-02-14T06:05:23.391Z,12.60
2019-02-14T06:08:19.877Z,12.20
2019-02-14T06:11:14.522Z,10.77
2019-02-14T06:14:10.889Z,12.60
2019-02-14T06:17:07.306Z,12.20
2019-02-14T06:20:04.020Z,12.07
2019-02-14T06:23:00.767Z,10.63
2019-02-14T06:25:57.336Z,11.70
2019-02-14T06:28:54.103Z,12.60
2019-02-14T06:31:49.719Z,11.50
2019-02-14T06:34:44.706Z,10.80
2019-02-14T06:37:41.218Z,12.90
2019-02-14T06:40:36.947Z,11.73
2019-02-14T06:43:33.666Z,11.80
2019-02-14T06:46:30.167Z,12.83
2019-02-14T06:49:26.883Z,14.97
2019-02-14T06:52:24.516Z,13.90
2019-02-14T06:55:21.241Z,15.30
2019-02-14T06:58:17.860Z,14.43
2019-02-14T07:01:13.642Z,14.20
2019-02-14T07:04:10.157Z,13.17
2019-02-14T07:07:07.706Z,13.57
2019-02-14T07:10:04.324Z,13.80
2019-02-14T07:13:00.948Z,13.07
2019-02-14T07:15:56.247Z,14.80
2019-02-14T07:18:54.018Z,14.50
2019-02-14T07:21:51.625Z,13.10
2019-02-14T07:24:47.180Z,13.00
2019-02-14T07:27:43.844Z,15.70
2019-02-14T07:30:39.527Z,14.40
2019-02-14T07:33:36.047Z,15.00
2019-02-14T07:36:32.830Z,13.83
2019-02-14T07:39:28.717Z,14.40
2019-02-14T07:42:25.254Z,12.00
2019-02-14T07:45:21.684Z,13.33
2019-02-14T07:48:18.436Z,13.50
2019-02-14T07:51:13.965Z,14.43
2019-02-14T07:54:10.781Z,12.50
2019-02-14T07:57:06.507Z,12.20
2019-02-14T08:00:02.660Z,11.90
2019-02-14T08:02:58.087Z,11.77
2019-02-14T08:05:54.792Z,12.57
2019-02-14T08:08:50.307Z,12.13
2019-02-14T08:11:46.543Z,13.03
2019-02-14T08:14:43.072Z,12.10
2019-02-14T08:17:39.520Z,11.87
2019-02-14T08:20:36.227Z,12.10
2019-02-14T08:23:32.789Z,12.47
2019-02-14T08:26:31.015Z,12.37
2019-02-14T08:29:27.590Z,13.22
2019-02-14T08:32:36.348Z,12.73
2019-02-14T08:35:40.071Z,11.40
2019-02-14T08:38:35.594Z,11.57
2019-02-14T08:41:32.489Z,12.60
2019-02-14T08:44:28.260Z,13.40
2019-02-14T08:47:26.081Z,12.20
2019-02-14T08:50:21.787Z,12.47
2019-02-14T08:53:18.520Z,13.00
2019-02-14T08:56:14.030Z,12.75
2019-02-14T08:59:15.668Z,14.27
2019-02-14T09:02:12.195Z,11.60
2019-02-14T09:05:07.472Z,11.97
2019-02-14T09:08:03.997Z,10.70
2019-02-14T09:11:00.615Z,11.67
2019-02-14T09:13:57.337Z,12.00
2019-02-14T09:16:52.676Z,12.17
2019-02-14T09:19:49.266Z,12.60
2019-02-14T09:22:46.718Z,18.47
2019-02-14T09:25:43.367Z,11.50
2019-02-14T09:28:42.010Z,12.83
2019-02-14T09:31:37.483Z,10.10
2019-02-14T09:34:34.223Z,11.83
2019-02-14T09:37:30.679Z,10.70
2019-02-14T09:40:26.913Z,11.23
2019-02-14T09:43:29.644Z,11.63
2019-02-14T09:46:19.419Z,9.65
2019-02-14T09:49:16.062Z,10.13
2019-02-14T09:52:11.654Z,10.43
2019-02-14T09:55:08.388Z,11.30
2019-02-14T09:58:04.033Z,10.30
2019-02-14T10:01:00.578Z,9.88
2019-02-14T10:03:56.087Z,9.73
2019-02-14T10:06:52.651Z,10.77
2019-02-14T10:09:48.542Z,11.38
2019-02-14T10:12:45.149Z,10.17
2019-02-14T10:15:41.861Z,10.70
2019-02-14T10:18:37.421Z,11.27
2019-02-14T10:21:34.960Z,10.83
2019-02-14T10:24:30.494Z,9.65
2019-02-14T10:27:28.876Z,9.53
2019-02-14T10:30:26.198Z,9.48
2019-02-14T10:33:22.910Z,9.58
2019-02-14T10:36:19.921Z,8.33
2019-02-14T10:39:22.432Z,9.20
2019-02-14T10:42:19.913Z,9.95
2019-02-14T10:45:23.859Z,9.43
2019-02-14T10:48:27.786Z,9.33
2019-02-14T10:51:29.461Z,10.13
2019-02-14T10:54:25.999Z,9.13
2019-02-14T10:57:21.958Z,9.10
2019-02-14T11:00:18.873Z,8.83
2019-02-14T11:03:15.341Z,8.87
2019-02-14T11:06:11.043Z,9.20
2019-02-14T11:09:07.553Z,8.30
2019-02-14T11:12:06.455Z,9.30
2019-02-14T11:15:02.954Z,8.90
2019-02-14T11:17:58.316Z,8.93
2019-02-14T11:20:54.617Z,9.77
2019-02-14T11:23:52.381Z,8.80
2019-02-14T11:26:47.210Z,9.67
2019-02-14T11:29:46.151Z,9.17
2019-02-14T11:32:41.726Z,9.73
2019-02-14T11:35:38.180Z,8.80
2019-02-14T11:38:40.373Z,8.90
2019-02-14T11:41:30.150Z,9.40
2019-02-14T11:44:27.762Z,9.00
2019-02-14T11:47:23.349Z,8.23
2019-02-14T11:50:21.508Z,9.48
2019-02-14T11:53:16.449Z,8.23
2019-02-14T11:56:13.209Z,9.90
2019-02-14T11:59:08.701Z,10.83
2019-02-14T12:02:05.443Z,10.00
2019-02-14T12:05:02.194Z,9.53
2019-02-14T12:07:58.662Z,10.00
2019-02-14T12:10:54.181Z,9.80
2019-02-14T12:13:50.681Z,9.75
2019-02-14T12:16:47.231Z,8.40
2019-02-14T12:19:42.705Z,7.10
2019-02-14T12:22:46.356Z,7.70
2019-02-14T12:25:35.756Z,8.33
2019-02-14T12:28:32.543Z,7.90
2019-02-14T12:31:30.341Z,8.53
2019-02-14T12:34:26.045Z,10.50
2019-02-14T12:37:22.804Z,10.40
2019-02-14T12:40:18.883Z,10.63
2019-02-14T12:43:15.687Z,11.13
2019-02-14T12:46:11.445Z,11.20
2019-02-14T12:49:08.026Z,10.30
2019-02-14T12:52:02.793Z,9.73
2019-02-14T12:55:00.299Z,9.30
2019-02-14T12:57:55.670Z,7.90
2019-02-14T13:00:52.976Z,8.03
2019-02-14T13:03:54.591Z,7.50
2019-02-14T13:06:49.974Z,6.67
2019-02-14T13:09:46.718Z,7.67
2019-02-14T13:12:43.373Z,7.23
2019-02-14T13:15:40.837Z,7.47
2019-02-14T13:18:36.359Z,7.70
2019-02-14T13:21:34.021Z,7.40
2019-02-14T13:24:30.337Z,7.57
2019-02-14T13:27:25.891Z,6.90
2019-02-14T13:30:22.449Z,6.80
2019-02-14T13:33:18.247Z,7.80
2019-02-14T13:36:14.785Z,6.90
2019-02-14T13:39:10.250Z,8.00
2019-02-14T13:42:08.858Z,7.05
2019-02-14T13:45:05.541Z,7.30
2019-02-14T13:48:01.023Z,8.50
2019-02-14T13:50:58.852Z,7.97
2019-02-14T13:53:54.542Z,8.00
2019-02-14T13:56:54.144Z,8.00
2019-02-14T13:59:48.057Z,7.07
2019-02-14T14:02:44.522Z,7.67
2019-02-14T14:05:40.352Z,8.27
2019-02-14T14:08:36.063Z,8.37
2019-02-14T14:11:33.562Z,8.10
2019-02-14T14:14:29.297Z,7.60
2019-02-14T14:17:26.034Z,8.53
2019-02-14T14:20:21.637Z,7.43
2019-02-14T14:23:19.887Z,7.13
2019-02-14T14:26:14.056Z,6.22
2019-02-14T14:29:09.743Z,7.20
2019-02-14T14:32:06.505Z,7.20
2019-02-14T14:35:03.238Z,7.67
2019-02-14T14:37:59.950Z,8.10
2019-02-14T14:40:57.764Z,7.80
2019-02-14T14:44:04.884Z,7.03
2019-02-14T14:47:04.879Z,7.33
2019-02-14T14:50:00.359Z,7.22
2019-02-14T14:52:58.603Z,7.80
2019-02-14T14:55:56.981Z,7.47
2019-02-14T14:58:54.814Z,7.83
2019-02-14T15:02:01.872Z,7.55
2019-02-14T15:04:57.325Z,9.07
2019-02-14T15:07:54.814Z,9.47
2019-02-14T15:10:50.985Z,7.60
2019-02-14T15:13:58.987Z,7.30
2019-02-14T15:17:00.644Z,7.33
2019-02-14T15:19:57.215Z,7.70
2019-02-14T15:22:53.359Z,7.03
2019-02-14T15:25:49.264Z,7.37
2019-02-14T15:28:46.865Z,6.13
2019-02-14T15:31:43.391Z,6.10
2019-02-14T15:34:39.994Z,6.55
2019-02-14T15:37:38.813Z,7.20
2019-02-14T15:40:35.632Z,7.10
2019-02-14T15:43:32.494Z,7.00
2019-02-14T15:46:29.414Z,6.10
2019-02-14T15:49:25.468Z,7.03
2019-02-14T15:52:32.325Z,6.97
2019-02-14T15:55:28.455Z,6.83
2019-02-14T15:58:25.206Z,6.30
2019-02-14T16:01:21.813Z,6.43
2019-02-14T16:04:18.384Z,6.80
2019-02-14T16:07:17.562Z,6.97
2019-02-14T16:10:18.217Z,8.13
2019-02-14T16:13:09.224Z,6.97
2019-02-14T16:16:03.083Z,6.75
2019-02-14T16:18:59.817Z,6.60
2019-02-14T16:21:56.455Z,7.73
2019-02-14T16:24:52.142Z,9.98
2019-02-14T16:27:50.566Z,10.20
2019-02-14T16:30:46.012Z,8.30
2019-02-14T16:33:43.864Z,7.77
2019-02-14T16:36:41.799Z,8.60
2019-02-14T16:39:38.499Z,9.50
2019-02-14T16:42:35.050Z,12.83
2019-02-14T16:45:30.164Z,10.77
2019-02-14T16:48:26.724Z,9.53
2019-02-14T16:51:22.107Z,8.97
2019-02-14T16:54:19.726Z,8.87
2019-02-14T16:57:16.557Z,8.30
2019-02-14T17:00:12.159Z,10.10
2019-02-14T17:03:09.586Z,8.40
2019-02-14T17:06:05.100Z,8.00
2019-02-14T17:09:01.143Z,9.17
2019-02-14T17:11:57.869Z,8.53
2019-02-14T17:14:53.260Z,9.18
2019-02-14T17:17:50.783Z,10.50
2019-02-14T17:20:46.014Z,11.00
2019-02-14T17:23:48.757Z,10.70
2019-02-14T17:26:45.659Z,10.10
2019-02-14T17:29:41.451Z,11.80
2019-02-14T17:32:37.632Z,10.63
2019-02-14T17:35:33.900Z,11.00
2019-02-14T17:38:31.591Z,11.83
2019-02-14T17:41:29.127Z,12.97
2019-02-14T17:44:27.608Z,11.73
2019-02-14T17:47:23.684Z,12.37
2019-02-14T17:50:18.917Z,11.77
2019-02-14T17:53:15.496Z,11.80
2019-02-14T17:56:11.218Z,11.07
2019-02-14T17:59:07.959Z,10.00
2019-02-14T18:02:09.508Z,10.60
2019-02-14T18:05:05.112Z,9.90
2019-02-14T18:08:01.776Z,10.40
2019-02-14T18:10:57.563Z,8.70
2019-02-14T18:13:53.626Z,10.33
2019-02-14T18:16:50.476Z,9.10
2019-02-14T18:19:46.129Z,9.67
2019-02-14T18:22:43.741Z,9.00
2019-02-14T18:25:40.549Z,11.00
2019-02-14T18:28:37.518Z,11.87
2019-02-14T18:31:32.947Z,11.40
2019-02-14T18:34:30.590Z,11.67
2019-02-14T18:37:27.507Z,10.20
2019-02-14T18:40:23.795Z,10.50
2019-02-14T18:43:21.383Z,11.70
2019-02-14T18:46:18.233Z,11.87
2019-02-14T18:49:16.223Z,11.33
2019-02-14T18:52:12.908Z,11.22
2019-02-14T18:55:09.700Z,9.50
2019-02-14T18:58:06.280Z,10.40
2019-02-14T19:01:01.890Z,11.30
2019-02-14T19:03:58.684Z,10.83
2019-02-14T19:06:55.294Z,11.73
2019-02-14T19:09:50.006Z,12.60
2019-02-14T19:12:47.453Z,12.00
2019-02-14T19:15:43.041Z,13.15
2019-02-14T19:18:40.712Z,11.93
2019-02-14T19:21:37.384Z,11.13
2019-02-14T19:24:33.948Z,12.63
2019-02-14T19:27:29.776Z,12.50
2019-02-14T19:30:26.204Z,12.87
2019-02-14T19:33:24.078Z,11.77
2019-02-14T19:36:20.680Z,11.00
2019-02-14T19:39:17.515Z,12.80
2019-02-14T19:42:30.149Z,11.75
2019-02-14T19:45:38.131Z,12.60
2019-02-14T19:48:33.156Z,12.33
2019-02-14T19:51:29.939Z,10.50
2019-02-14T19:54:26.213Z,10.20
2019-02-14T19:57:22.339Z,10.93
2019-02-14T20:00:19.000Z,11.17
2019-02-14T20:03:15.713Z,11.67
2019-02-14T20:06:12.713Z,9.00
2019-02-14T20:09:09.774Z,9.40
2019-02-14T20:12:05.382Z,9.23
2019-02-14T20:15:02.204Z,9.90
2019-02-14T20:17:58.628Z,8.73
2019-02-14T20:20:54.454Z,8.90
2019-02-14T20:23:50.279Z,9.30
2019-02-14T20:26:48.081Z,10.00
2019-02-14T20:29:45.090Z,11.23
2019-02-14T20:32:40.849Z,11.88
2019-02-14T20:35:37.239Z,12.50
2019-02-14T20:38:32.567Z,11.03
2019-02-14T20:41:29.389Z,10.93
2019-02-14T20:44:25.792Z,11.10
2019-02-14T20:47:23.593Z,11.17
2019-02-14T20:50:19.467Z,11.23
2019-02-14T20:53:16.342Z,10.90
2019-02-14T20:56:13.062Z,12.00
2019-02-14T20:59:08.713Z,11.13
2019-02-14T21:02:07.544Z,10.67
2019-02-14T21:05:03.205Z,12.40
2019-02-14T21:07:59.851Z,11.50
2019-02-14T21:10:56.126Z,12.03
2019-02-14T21:13:52.758Z,12.67
2019-02-14T21:16:49.517Z,10.53
2019-02-14T21:19:47.174Z,11.03
2019-02-14T21:24:59.104Z,11.37
2019-02-14T21:27:30.333Z,13.37
2019-02-14T21:30:00.489Z,12.43
2019-02-14T21:32:30.765Z,14.13
2019-02-14T21:35:00.943Z,12.73
2019-02-14T21:37:31.160Z,16.40
2019-02-14T21:40:01.736Z,15.70
2019-02-14T21:42:32.471Z,15.90
2019-02-14T21:45:03.485Z,15.87
2019-02-14T21:47:33.760Z,16.53
2019-02-14T21:50:05.023Z,16.00
2019-02-14T21:52:35.177Z,16.37
2019-02-14T21:55:05.603Z,15.58
2019-02-14T21:57:35.851Z,14.73
2019-02-14T22:00:07.990Z,14.40
2019-02-14T22:02:39.004Z,14.00
2019-02-14T22:05:09.770Z,14.20
2019-02-14T22:07:40.070Z,12.80
2019-02-14T22:10:11.545Z,13.10
2019-02-14T22:12:44.138Z,13.10
2019-02-14T22:15:15.923Z,11.70
2019-02-14T22:17:46.174Z,11.57
2019-02-14T22:20:16.497Z,12.33
2019-02-14T22:22:47.561Z,12.05
2019-02-14T22:25:17.753Z,11.87
2019-02-14T22:27:47.920Z,12.17
2019-02-14T22:30:18.330Z,13.10
2019-02-14T22:32:48.492Z,11.07
2019-02-14T22:35:18.707Z,12.10
2019-02-14T22:37:48.862Z,11.53
2019-02-14T22:40:19.225Z,12.90
2019-02-14T22:42:49.598Z,12.70
2019-02-14T22:45:19.793Z,12.50
2019-02-14T22:47:49.975Z,11.00
2019-02-14T22:50:20.118Z,11.77
2019-02-14T22:52:50.296Z,11.38
2019-02-14T22:55:20.489Z,11.60
2019-02-14T22:57:50.663Z,12.13
2019-02-14T23:00:31.804Z,12.00
2019-02-14T23:03:02.832Z,12.17
2019-02-14T23:05:32.994Z,11.70
2019-02-14T23:10:32.443Z,10.75
2019-02-14T23:13:02.730Z,11.00
2019-02-14T23:15:32.860Z,10.73
2019-02-14T23:18:04.023Z,10.37
2019-02-14T23:20:34.976Z,11.12
2019-02-14T23:23:06.336Z,11.40
2019-02-14T23:25:37.280Z,11.70
2019-02-14T23:28:07.524Z,11.18
